Caldwell, ID

3:26 AM MDT on September 15, 2014 (GMT -0600)
Caldwell Industrial | Change Station
CLOSE
Current Station
Airport
Location: Caldwell,
Elevation: 2428 ft
Nearby Weather Stations

Elev 2428 ft 43.64 °N, 116.64 °W | Updated 11 minutes ago

Clear
Clear
52 °F
Feels Like 52 °F
N
0
Wind Variable Wind from North

Today
High -- | Low -- °F
--% Chance of Precip.
Yesterday
High -- | Low -- °F
Precip. -- in
7:26 AM 7:56 PM
Waning Gibbous, 57% visible
Pressure 29.99 in
Visibility 10.0 miles
Clouds Clear
Dew Point 36 °F
Humidity 54%
Rainfall 0.00 in
Snow Depth 0 in , 1 in , 0 in
UV 0 out of 12
Pollen 6.60 out of 12
Ozone Good
PM2.5 Moderate
Flu Activity Not available.
METAR KEUL 150915Z AUTO 00000KT 10SM CLR 11/02 A2999 RMK AO1

More Conditions Fewer Conditions

Pressure 29.99 in
Visibility 10.0 miles
Clouds Clear
Dew Point 36 °F
Humidity 54%
Rainfall 0.00 in
Snow Depth 0 in , 1 in , 0 in
UV 0 out of 12
Pollen 6.60 out of 12
Ozone Good
PM2.5 Moderate
Flu Activity Not available.
METAR KEUL 150915Z AUTO 00000KT 10SM CLR 11/02 A2999 RMK AO1

More Conditions Fewer Conditions

10-Day Weather Forecast

Almanac

Astronomy

Sep. 15, 2014 Rise Set
Actual Time 7:26 AM MDT 7:56 PM MDT
Civil Twilight 6:57 AM MDT 8:25 PM MDT
Nautical Twilight 6:23 AM MDT 8:59 PM MDT
Astronomical Twilight 5:48 AM MDT 9:34 PM MDT
Moon No Moon Rise 2:41 PM MDT
Length of Visible Light 13h 28m
Length of Day
12h 30m
Tomorrow will be 2m 57s shorter.
Waning Gibbous, 57% of the Moon is Illuminated
Today
Waning Gibbous
Sep 15
Last Quarter
Sep 24
New
Oct 1
First Quarter
Oct 8
Full

Today's Extremes

State Highs State Lows

Community

WunderPhotos

Upload Photos

1,753,426 photos uploaded!

Nearby

Air Quality

  Air Quality AQ Index Pollutant
Yesterday Good
PM10
Yesterday Moderate
OZONE
Current Moderate
PM2.5
Current Good
OZONE
Monday Good
OZONE
Tuesday Good
OZONE

Snow Depth

Station Depth Elevation
Morgan Creek 0 in 7600 ft
Myrtle Creek 0 in 3520 ft
Squaw Flat 1 in 6240 ft
Swede Peak 0 in 7640 ft
Dollarhide Summit 0 in 8420 ft

Earthquake Activity

City Distance Mag. Time & Date
No recent earthquake activity has been reported nearby.
Minimum magnitude displayed is 2.5.

Coastal Water Temperatures

Place Temperature
No Stations Reporting

Nearby Weather Stations